createdAt,value
2024-01-01T00:00:57.824Z,89.38
2024-01-01T00:01:57.825Z,89.48
2024-01-01T00:02:57.768Z,89.48
2024-01-01T00:03:57.866Z,89.48
2024-01-01T00:04:57.722Z,89.38
2024-01-01T00:05:57.758Z,89.38
2024-01-01T00:06:57.689Z,89.59
2024-01-01T00:07:57.708Z,89.59
2024-01-01T00:08:57.673Z,89.69
2024-01-01T00:09:57.662Z,89.79
2024-01-01T00:10:57.693Z,89.59
2024-01-01T00:11:57.622Z,89.48
2024-01-01T00:12:57.622Z,89.59
2024-01-01T00:13:57.640Z,89.69
2024-01-01T00:14:57.577Z,89.79
2024-01-01T00:15:57.583Z,89.89
2024-01-01T00:16:59.263Z,90.00
2024-01-01T00:17:57.646Z,90.00
2024-01-01T00:18:57.590Z,89.69
2024-01-01T00:19:57.518Z,89.69
2024-01-01T00:20:57.503Z,89.79
2024-01-01T00:21:57.498Z,89.89
2024-01-01T00:22:57.492Z,90.10
2024-01-01T00:23:57.461Z,90.10
2024-01-01T00:24:57.550Z,90.10
2024-01-01T00:25:57.511Z,90.00
2024-01-01T00:26:57.439Z,90.00
2024-01-01T00:27:57.420Z,89.89
2024-01-01T00:28:57.419Z,89.89
2024-01-01T00:29:57.397Z,90.00
2024-01-01T00:30:57.433Z,90.00
2024-01-01T00:31:57.428Z,90.00
2024-01-01T00:32:57.407Z,90.00
2024-01-01T00:33:57.431Z,90.00
2024-01-01T00:34:57.348Z,90.04
2024-01-01T00:35:57.321Z,89.94
2024-01-01T00:36:57.303Z,90.00
2024-01-01T00:37:57.381Z,90.14
2024-01-01T00:38:57.270Z,90.14
2024-01-01T00:39:57.292Z,90.25
2024-01-01T00:40:57.290Z,90.14
2024-01-01T00:41:57.244Z,90.25
2024-01-01T00:42:57.231Z,90.25
2024-01-01T00:43:57.249Z,90.25
2024-01-01T00:44:57.224Z,90.35
2024-01-01T00:45:57.269Z,90.45
2024-01-01T00:46:57.257Z,90.25
2024-01-01T00:47:57.333Z,90.14
2024-01-01T00:48:57.172Z,90.14
2024-01-01T00:49:57.180Z,90.14
2024-01-01T00:50:57.148Z,90.35
2024-01-01T00:51:57.115Z,90.45
2024-01-01T00:52:57.108Z,90.66
2024-01-01T00:53:57.108Z,90.66
2024-01-01T00:54:57.132Z,90.77
2024-01-01T00:55:57.102Z,90.66
2024-01-01T00:56:57.038Z,90.66
2024-01-01T00:57:57.025Z,90.25
2024-01-01T00:58:57.075Z,90.14
2024-01-01T00:59:57.017Z,90.14
2024-01-01T01:00:57.005Z,90.04
2024-01-01T01:01:57.006Z,90.04
2024-01-01T01:02:56.996Z,89.83
2024-01-01T01:03:56.957Z,89.42
2024-01-01T01:05:03.678Z,89.32
2024-01-01T01:06:05.527Z,89.11
2024-01-01T01:06:57.943Z,89.22
2024-01-01T01:07:56.929Z,89.52
2024-01-01T01:08:56.886Z,89.73
2024-01-01T01:09:56.868Z,89.94
2024-01-01T01:10:56.868Z,90.04
2024-01-01T01:11:56.855Z,90.14
2024-01-01T01:12:56.818Z,90.14
2024-01-01T01:13:56.875Z,90.35
2024-01-01T01:14:56.803Z,90.56
2024-01-01T01:15:56.807Z,90.66
2024-01-01T01:16:56.795Z,90.77
2024-01-01T01:17:56.873Z,90.87
2024-01-01T01:18:56.805Z,90.87
2024-01-01T01:19:56.777Z,90.77
2024-01-01T01:20:56.710Z,90.56
2024-01-01T01:21:56.709Z,90.35
2024-01-01T01:22:56.723Z,90.25
2024-01-01T01:23:56.705Z,90.35
2024-01-01T01:24:56.813Z,90.35
2024-01-01T01:25:56.683Z,90.45
2024-01-01T01:26:56.654Z,90.56
2024-01-01T01:27:56.653Z,90.66
2024-01-01T01:28:56.680Z,90.66
2024-01-01T01:29:56.604Z,90.66
2024-01-01T01:30:56.646Z,90.66
2024-01-01T01:31:56.612Z,90.56
2024-01-01T01:32:56.615Z,90.35
2024-01-01T01:33:56.548Z,90.45
2024-01-01T01:34:56.558Z,90.35
2024-01-01T01:35:56.528Z,90.35
2024-01-01T01:36:56.550Z,90.35
2024-01-01T01:37:56.552Z,90.56
2024-01-01T01:38:56.481Z,90.56
2024-01-01T01:39:56.464Z,90.56
2024-01-01T01:40:56.563Z,90.35
2024-01-01T01:41:56.464Z,90.14
2024-01-01T01:42:56.452Z,90.35
2024-01-01T01:43:56.477Z,90.45
2024-01-01T01:44:56.406Z,90.56
2024-01-01T01:45:56.413Z,90.52
2024-01-01T01:46:56.466Z,90.66
2024-01-01T01:47:56.437Z,90.77
2024-01-01T01:48:56.393Z,90.72
2024-01-01T01:49:56.370Z,90.77
2024-01-01T01:50:56.354Z,90.72
2024-01-01T01:51:56.334Z,90.83
2024-01-01T01:52:56.328Z,90.83
2024-01-01T01:53:56.302Z,90.93
2024-01-01T01:54:56.277Z,91.03
2024-01-01T01:55:56.430Z,91.03
2024-01-01T01:56:56.274Z,90.93
2024-01-01T01:57:56.244Z,90.72
2024-01-01T01:58:56.248Z,90.72
2024-01-01T01:59:56.225Z,90.83
2024-01-01T02:00:56.535Z,90.83
2024-01-01T02:01:56.234Z,90.72
2024-01-01T02:02:56.175Z,90.72
2024-01-01T02:03:56.162Z,90.83
2024-01-01T02:04:56.247Z,90.52
2024-01-01T02:05:56.457Z,90.52
2024-01-01T02:06:56.123Z,90.62
2024-01-01T02:07:56.191Z,90.62
2024-01-01T02:08:56.094Z,90.72
2024-01-01T02:09:56.090Z,90.93
2024-01-01T02:10:56.138Z,90.93
2024-01-01T02:11:56.093Z,90.93
2024-01-01T02:12:56.058Z,90.72
2024-01-01T02:13:56.072Z,90.62
2024-01-01T02:14:56.021Z,90.52
2024-01-01T02:15:56.006Z,90.31
2024-01-01T02:16:56.025Z,90.41
2024-01-01T02:17:56.062Z,90.41
2024-01-01T02:18:56.008Z,90.31
2024-01-01T02:19:58.857Z,90.31
2024-01-01T02:20:57.181Z,90.41
2024-01-01T02:21:55.928Z,90.52
2024-01-01T02:22:56.117Z,90.62
2024-01-01T02:23:55.963Z,90.62
2024-01-01T02:24:55.888Z,90.72
2024-01-01T02:25:55.921Z,90.72
2024-01-01T02:26:55.851Z,90.72
2024-01-01T02:27:55.865Z,90.83
2024-01-01T02:28:55.871Z,90.83
2024-01-01T02:29:55.809Z,90.93
2024-01-01T02:30:55.836Z,91.03
2024-01-01T02:31:55.837Z,91.03
2024-01-01T02:32:55.890Z,91.03
2024-01-01T02:33:55.809Z,90.93
2024-01-01T02:34:55.792Z,90.93
2024-01-01T02:35:55.725Z,90.93
2024-01-01T02:36:55.718Z,91.03
2024-01-01T02:37:55.751Z,90.93
2024-01-01T02:38:55.701Z,90.93
2024-01-01T02:39:55.681Z,91.03
2024-01-01T02:40:55.808Z,90.93
2024-01-01T02:41:55.649Z,90.93
2024-01-01T02:42:55.654Z,91.13
2024-01-01T02:43:55.655Z,91.13
2024-01-01T02:44:55.622Z,91.03
2024-01-01T02:45:55.651Z,91.03
2024-01-01T02:46:55.616Z,91.03
2024-01-01T02:47:55.791Z,91.03
2024-01-01T02:48:55.606Z,91.03
2024-01-01T02:49:55.635Z,90.93
2024-01-01T02:50:55.554Z,90.93
2024-01-01T02:51:55.527Z,90.93
2024-01-01T02:52:55.603Z,90.93
2024-01-01T02:53:55.489Z,91.13
2024-01-01T02:54:55.489Z,91.13
2024-01-01T02:55:55.496Z,91.03
2024-01-01T02:56:55.467Z,90.72
2024-01-01T02:57:55.445Z,90.83
2024-01-01T02:58:55.471Z,90.72
2024-01-01T02:59:55.417Z,90.83
2024-01-01T03:00:55.480Z,90.93
2024-01-01T03:01:55.535Z,91.03
2024-01-01T03:02:55.382Z,91.03
2024-01-01T03:03:55.415Z,90.83
2024-01-01T03:04:55.460Z,90.72
2024-01-01T03:05:55.406Z,90.52
2024-01-01T03:06:55.335Z,90.62
2024-01-01T03:07:55.381Z,90.47
2024-01-01T03:08:55.294Z,90.47
2024-01-01T03:09:55.286Z,90.47
2024-01-01T03:10:55.287Z,90.47
2024-01-01T03:11:55.257Z,90.37
2024-01-01T03:12:55.244Z,90.37
2024-01-01T03:13:55.282Z,90.37
2024-01-01T03:14:55.216Z,90.47
2024-01-01T03:15:55.204Z,90.58
2024-01-01T03:16:55.317Z,90.58
2024-01-01T03:17:55.258Z,90.58
2024-01-01T03:18:55.254Z,90.58
2024-01-01T03:19:55.188Z,90.47
2024-01-01T03:20:55.131Z,90.47
2024-01-01T03:21:55.123Z,90.47
2024-01-01T03:22:55.153Z,90.47
2024-01-01T03:23:55.112Z,90.37
2024-01-01T03:24:55.097Z,90.26
2024-01-01T03:25:55.109Z,90.26
2024-01-01T03:26:55.072Z,90.37
2024-01-01T03:27:55.050Z,90.47
2024-01-01T03:28:55.081Z,90.47
2024-01-01T03:29:55.022Z,90.37
2024-01-01T03:30:55.103Z,90.47
2024-01-01T03:31:55.009Z,90.47
2024-01-01T03:32:55.038Z,90.58
2024-01-01T03:33:55.022Z,90.68
2024-01-01T03:34:55.039Z,90.78
2024-01-01T03:35:54.942Z,90.68
2024-01-01T03:36:54.924Z,90.68
2024-01-01T03:37:55.023Z,90.68
2024-01-01T03:38:54.928Z,90.78
2024-01-01T03:39:54.880Z,90.89
2024-01-01T03:40:54.934Z,90.68
2024-01-01T03:41:54.854Z,90.58
2024-01-01T03:42:54.848Z,90.58
2024-01-01T03:43:54.893Z,90.68
2024-01-01T03:44:54.831Z,90.58
2024-01-01T03:45:54.820Z,90.68
2024-01-01T03:46:54.846Z,90.26
2024-01-01T03:47:54.893Z,90.26
2024-01-01T03:48:54.878Z,90.37
2024-01-01T03:49:54.793Z,90.37
2024-01-01T03:50:54.744Z,90.37
2024-01-01T03:51:54.737Z,90.58
2024-01-01T03:52:54.732Z,90.68
2024-01-01T03:53:54.700Z,90.58
2024-01-01T03:54:54.690Z,90.47
2024-01-01T03:55:54.715Z,90.47
2024-01-01T03:56:54.682Z,90.47
2024-01-01T03:57:54.665Z,90.52
2024-01-01T03:58:54.685Z,90.58
2024-01-01T03:59:54.631Z,90.68
2024-01-01T04:00:54.658Z,90.78
2024-01-01T04:01:54.641Z,90.68
2024-01-01T04:02:54.603Z,90.72
2024-01-01T04:03:54.615Z,90.78
2024-01-01T04:04:54.624Z,90.89
2024-01-01T04:05:56.222Z,90.99
2024-01-01T04:06:54.536Z,90.89
2024-01-01T04:07:54.582Z,90.89
2024-01-01T04:08:54.506Z,90.78
2024-01-01T04:09:54.483Z,90.78
2024-01-01T04:10:54.528Z,90.78
2024-01-01T04:11:54.497Z,90.89
2024-01-01T04:12:54.456Z,90.99
2024-01-01T04:13:54.548Z,91.09
2024-01-01T04:14:54.491Z,91.20
2024-01-01T04:15:54.414Z,91.30
2024-01-01T04:16:54.431Z,91.20
2024-01-01T04:17:54.524Z,91.09
2024-01-01T04:18:54.439Z,91.09
2024-01-01T04:19:54.365Z,91.20
2024-01-01T04:20:54.406Z,91.30
2024-01-01T04:21:54.331Z,91.30
2024-01-01T04:22:54.349Z,91.30
2024-01-01T04:23:54.299Z,91.20
2024-01-01T04:24:54.351Z,91.20
2024-01-01T04:25:54.299Z,91.20
2024-01-01T04:26:54.271Z,91.30
2024-01-01T04:27:54.250Z,91.30
2024-01-01T04:28:54.262Z,91.40
2024-01-01T04:29:54.231Z,91.20
2024-01-01T04:30:54.233Z,90.89
2024-01-01T04:31:54.251Z,90.89
2024-01-01T04:32:54.208Z,90.99
2024-01-01T04:33:54.189Z,90.68
2024-01-01T04:34:54.222Z,90.47
2024-01-01T04:35:54.136Z,90.37
2024-01-01T04:36:54.179Z,90.06
2024-01-01T04:37:54.126Z,89.95
2024-01-01T04:38:54.109Z,90.26
2024-01-01T04:39:54.090Z,90.16
2024-01-01T04:40:54.096Z,89.95
2024-01-01T04:41:54.123Z,89.95
2024-01-01T04:42:54.043Z,90.06
2024-01-01T04:43:54.078Z,90.26
2024-01-01T04:44:54.049Z,90.26
2024-01-01T04:45:53.998Z,89.95
2024-01-01T04:46:54.072Z,90.06
2024-01-01T04:47:54.105Z,90.06
2024-01-01T04:48:54.018Z,89.86
2024-01-01T04:49:54.025Z,89.65
2024-01-01T04:50:53.941Z,89.65
2024-01-01T04:51:53.949Z,89.86
2024-01-01T04:52:53.969Z,89.65
2024-01-01T04:53:53.905Z,89.54
2024-01-01T04:54:53.889Z,89.65
2024-01-01T04:55:53.944Z,89.75
2024-01-01T04:56:53.901Z,89.86
2024-01-01T04:57:53.861Z,89.75
2024-01-01T04:58:53.882Z,89.54
2024-01-01T04:59:53.830Z,89.44
2024-01-01T05:00:53.890Z,89.23
2024-01-01T05:01:53.806Z,89.34
2024-01-01T05:02:53.791Z,89.44
2024-01-01T05:03:53.832Z,89.54
2024-01-01T05:04:53.788Z,89.34
2024-01-01T05:05:53.756Z,89.03
2024-01-01T05:06:53.727Z,89.13
2024-01-01T05:07:53.779Z,89.23
2024-01-01T05:08:53.721Z,89.44
2024-01-01T05:09:53.685Z,89.75
2024-01-01T05:10:55.718Z,89.75
2024-01-01T05:11:53.672Z,89.79
2024-01-01T05:12:53.653Z,89.79
2024-01-01T05:13:53.648Z,89.69
2024-01-01T05:14:53.622Z,89.79
2024-01-01T05:15:53.636Z,89.69
2024-01-01T05:16:53.634Z,89.65
2024-01-01T05:17:53.679Z,89.48
2024-01-01T05:18:53.606Z,89.44
2024-01-01T05:19:53.583Z,89.54
2024-01-01T05:20:53.542Z,89.03
2024-01-01T05:21:53.530Z,88.61
2024-01-01T05:22:53.542Z,88.41
2024-01-01T05:23:53.494Z,88.71
2024-01-01T05:24:53.494Z,89.03
2024-01-01T05:25:53.509Z,89.13
2024-01-01T05:26:53.477Z,89.03
2024-01-01T05:27:53.472Z,89.03
2024-01-01T05:28:53.472Z,89.03
2024-01-01T05:29:53.427Z,89.13
2024-01-01T05:30:53.472Z,89.13
2024-01-01T05:31:53.440Z,89.13
2024-01-01T05:32:53.513Z,89.03
2024-01-01T05:33:53.504Z,89.03
2024-01-01T05:34:53.407Z,89.23
2024-01-01T05:35:53.383Z,89.03
2024-01-01T05:36:53.333Z,89.13
2024-01-01T05:37:53.363Z,89.34
2024-01-01T05:38:53.314Z,89.44
2024-01-01T05:39:53.306Z,89.75
2024-01-01T05:40:53.393Z,89.86
2024-01-01T05:41:53.287Z,89.54
2024-01-01T05:42:53.272Z,89.23
2024-01-01T05:43:53.292Z,89.34
2024-01-01T05:44:53.233Z,89.54
2024-01-01T05:45:53.236Z,89.65
2024-01-01T05:46:53.228Z,88.92
2024-01-01T05:47:56.015Z,88.82
2024-01-01T05:48:53.266Z,89.03
2024-01-01T05:49:53.227Z,88.92
2024-01-01T05:50:53.162Z,88.92
2024-01-01T05:51:53.136Z,89.03
2024-01-01T05:52:53.167Z,88.92
2024-01-01T05:53:53.102Z,88.92
2024-01-01T05:54:53.108Z,89.03
2024-01-01T05:55:53.146Z,89.13
2024-01-01T05:56:53.073Z,89.23
2024-01-01T05:57:53.059Z,89.34
2024-01-01T05:58:53.058Z,89.23
2024-01-01T05:59:53.032Z,89.13
2024-01-01T06:00:53.042Z,89.23
2024-01-01T06:01:53.005Z,89.23
2024-01-01T06:02:52.987Z,89.23
2024-01-01T06:03:53.000Z,89.03
2024-01-01T06:04:53.100Z,89.23
2024-01-01T06:05:53.037Z,89.44
2024-01-01T06:06:52.945Z,88.51
2024-01-01T06:07:52.926Z,88.61
2024-01-01T06:08:52.915Z,88.71
2024-01-01T06:09:52.881Z,88.92
2024-01-01T06:10:52.900Z,88.51
2024-01-01T06:11:52.859Z,88.41
2024-01-01T06:12:52.867Z,88.61
2024-01-01T06:13:52.845Z,88.61
2024-01-01T06:14:52.829Z,88.82
2024-01-01T06:15:52.825Z,89.03
2024-01-01T06:16:52.882Z,88.82
2024-01-01T06:17:53.030Z,88.41
2024-01-01T06:18:52.956Z,88.10
2024-01-01T06:19:52.774Z,88.31
2024-01-01T06:20:52.745Z,88.61
2024-01-01T06:21:52.719Z,88.71
2024-01-01T06:22:52.782Z,88.71
2024-01-01T06:23:52.714Z,88.82
2024-01-01T06:24:52.694Z,89.03
2024-01-01T06:25:52.697Z,88.92
2024-01-01T06:26:52.673Z,88.82
2024-01-01T06:27:52.660Z,88.71
2024-01-01T06:28:52.675Z,88.71
2024-01-01T06:29:52.624Z,88.82
2024-01-01T06:30:52.694Z,89.03
2024-01-01T06:31:52.639Z,88.71
2024-01-01T06:32:52.665Z,88.82
2024-01-01T06:33:52.743Z,89.03
2024-01-01T06:34:52.619Z,88.92
2024-01-01T06:35:52.553Z,88.82
2024-01-01T06:36:52.544Z,89.03
2024-01-01T06:37:52.538Z,89.34
2024-01-01T06:38:52.507Z,89.54
2024-01-01T06:39:52.494Z,89.54
2024-01-01T06:40:52.530Z,89.44
2024-01-01T06:41:52.507Z,89.44
2024-01-01T06:42:52.452Z,89.65
2024-01-01T06:43:52.465Z,89.54
2024-01-01T06:44:52.435Z,89.54
2024-01-01T06:45:52.441Z,89.44
2024-01-01T06:46:52.443Z,89.54
2024-01-01T06:47:52.445Z,89.54
2024-01-01T06:48:52.454Z,89.34
2024-01-01T06:50:01.122Z,89.23
2024-01-01T06:51:01.227Z,89.34
2024-01-01T06:51:52.340Z,89.34
2024-01-01T06:52:52.344Z,89.13
2024-01-01T06:53:52.336Z,89.03
2024-01-01T06:54:52.300Z,89.03
2024-01-01T06:55:52.329Z,88.92
2024-01-01T06:56:52.286Z,88.71
2024-01-01T06:57:52.264Z,88.82
2024-01-01T06:58:52.311Z,89.03
2024-01-01T06:59:52.261Z,89.34
2024-01-01T07:00:52.250Z,88.92
2024-01-01T07:01:52.342Z,88.92
2024-01-01T07:02:52.230Z,89.03
2024-01-01T07:03:52.168Z,89.13
2024-01-01T07:04:52.202Z,88.92
2024-01-01T07:05:52.343Z,89.23
2024-01-01T07:06:52.195Z,89.34
2024-01-01T07:07:52.222Z,89.54
2024-01-01T07:08:52.178Z,89.44
2024-01-01T07:09:52.150Z,89.44
2024-01-01T07:10:52.188Z,89.54
2024-01-01T07:11:52.159Z,89.34
2024-01-01T07:12:52.072Z,89.44
2024-01-01T07:13:52.099Z,89.54
2024-01-01T07:14:52.081Z,89.54
2024-01-01T07:15:52.048Z,89.44
2024-01-01T07:16:52.025Z,89.50
2024-01-01T07:17:52.324Z,89.50
2024-01-01T07:18:52.103Z,89.50
2024-01-01T07:19:52.078Z,89.71
2024-01-01T07:20:51.950Z,89.81
2024-01-01T07:21:51.941Z,90.02
2024-01-01T07:22:51.961Z,90.12
2024-01-01T07:23:51.918Z,90.12
2024-01-01T07:24:51.893Z,90.12
2024-01-01T07:25:51.908Z,90.12
2024-01-01T07:26:51.877Z,90.12
2024-01-01T07:27:51.890Z,89.92
2024-01-01T07:28:51.862Z,89.92
2024-01-01T07:29:51.837Z,89.92
2024-01-01T07:30:51.857Z,90.02
2024-01-01T07:31:51.846Z,90.12
2024-01-01T07:32:51.843Z,90.12
2024-01-01T07:33:51.862Z,90.12
2024-01-01T07:34:51.781Z,90.02
2024-01-01T07:35:51.753Z,89.81
2024-01-01T07:36:51.761Z,89.71
2024-01-01T07:37:51.793Z,89.61
2024-01-01T07:38:51.718Z,89.71
2024-01-01T07:39:51.707Z,89.92
2024-01-01T07:40:51.758Z,89.81
2024-01-01T07:41:51.686Z,89.92
2024-01-01T07:42:51.657Z,89.92
2024-01-01T07:43:51.697Z,89.81
2024-01-01T07:44:51.635Z,89.92
2024-01-01T07:45:51.626Z,90.02
2024-01-01T07:46:51.657Z,89.92
2024-01-01T07:47:51.676Z,90.12
2024-01-01T07:48:51.623Z,90.22
2024-01-01T07:49:51.583Z,90.22
2024-01-01T07:50:51.565Z,90.22
2024-01-01T07:51:51.579Z,90.33
2024-01-01T07:52:51.555Z,90.22
2024-01-01T07:53:51.541Z,90.22
2024-01-01T07:54:51.498Z,90.02
2024-01-01T07:55:51.716Z,89.71
2024-01-01T07:56:51.482Z,89.92
2024-01-01T07:57:51.460Z,89.81
2024-01-01T07:58:51.467Z,89.81
2024-01-01T07:59:51.437Z,89.92
2024-01-01T08:00:51.482Z,89.92
2024-01-01T08:01:51.437Z,90.02
2024-01-01T08:02:51.440Z,90.12
2024-01-01T08:03:51.393Z,90.02
2024-01-01T08:04:51.451Z,90.22
2024-01-01T08:05:51.517Z,90.22
2024-01-01T08:06:51.358Z,90.22
2024-01-01T08:07:51.353Z,90.33
2024-01-01T08:08:51.313Z,90.43
2024-01-01T08:09:51.359Z,90.43
2024-01-01T08:10:51.381Z,89.92
2024-01-01T08:11:51.291Z,89.81
2024-01-01T08:12:51.257Z,89.92
2024-01-01T08:13:51.291Z,89.81
2024-01-01T08:14:51.266Z,89.81
2024-01-01T08:15:51.299Z,89.81
2024-01-01T08:16:51.246Z,89.81
2024-01-01T08:17:51.220Z,89.92
2024-01-01T08:18:51.321Z,90.12
2024-01-01T08:19:51.224Z,90.22
2024-01-01T08:20:51.261Z,90.22
2024-01-01T08:21:51.143Z,90.33
2024-01-01T08:22:51.164Z,90.33
2024-01-01T08:23:53.987Z,90.22
2024-01-01T08:24:51.113Z,90.12
2024-01-01T08:25:51.130Z,90.12
2024-01-01T08:26:51.071Z,89.92
2024-01-01T08:27:51.075Z,89.92
2024-01-01T08:28:51.083Z,89.87
2024-01-01T08:29:51.053Z,89.98
2024-01-01T08:30:51.043Z,90.19
2024-01-01T08:31:51.052Z,90.28
2024-01-01T08:32:51.055Z,90.28
2024-01-01T08:33:51.318Z,90.39
2024-01-01T08:34:50.996Z,90.39
2024-01-01T08:35:50.960Z,90.28
2024-01-01T08:36:50.957Z,90.28
2024-01-01T08:37:51.068Z,90.19
2024-01-01T08:38:50.936Z,90.08
2024-01-01T08:39:50.914Z,89.98
2024-01-01T08:40:50.927Z,90.08
2024-01-01T08:41:50.891Z,90.19
2024-01-01T08:42:50.868Z,90.28
2024-01-01T08:43:50.892Z,90.28
2024-01-01T08:44:50.852Z,90.49
2024-01-01T08:45:50.823Z,90.39
2024-01-01T08:46:50.823Z,90.49
2024-01-01T08:47:50.826Z,90.49
2024-01-01T08:48:50.891Z,90.59
2024-01-01T08:49:50.809Z,90.59
2024-01-01T08:50:50.751Z,90.70
2024-01-01T08:51:50.871Z,90.80
2024-01-01T08:52:50.761Z,90.91
2024-01-01T08:53:50.722Z,90.91
2024-01-01T08:54:50.707Z,91.01
2024-01-01T08:55:50.720Z,91.01
2024-01-01T08:56:50.722Z,91.01
2024-01-01T08:57:50.673Z,90.91
2024-01-01T08:58:50.690Z,90.59
2024-01-01T08:59:50.628Z,90.49
2024-01-01T09:00:50.652Z,90.59
2024-01-01T09:01:50.664Z,90.76
2024-01-01T09:02:50.587Z,90.76
2024-01-01T09:03:50.629Z,90.66
2024-01-01T09:04:50.630Z,90.59
2024-01-01T09:05:50.698Z,90.55
2024-01-01T09:06:50.553Z,90.70
2024-01-01T09:07:50.602Z,90.66
2024-01-01T09:08:50.509Z,90.76
2024-01-01T09:09:50.498Z,90.76
2024-01-01T09:10:50.518Z,90.45
2024-01-01T09:11:50.482Z,90.45
2024-01-01T09:12:50.460Z,90.55
2024-01-01T09:13:50.492Z,90.55
2024-01-01T09:14:50.436Z,90.76
2024-01-01T09:15:50.442Z,90.76
2024-01-01T09:16:50.464Z,90.76
2024-01-01T09:17:50.519Z,90.86
2024-01-01T09:18:50.515Z,90.86
2024-01-01T09:19:50.532Z,90.86
2024-01-01T09:20:50.384Z,90.86
2024-01-01T09:21:50.346Z,90.86
2024-01-01T09:22:50.330Z,91.07
2024-01-01T09:23:50.315Z,91.17
2024-01-01T09:24:50.320Z,91.17
2024-01-01T09:25:50.306Z,91.17
2024-01-01T09:26:50.285Z,91.24
2024-01-01T09:27:50.272Z,91.24
2024-01-01T09:28:50.287Z,91.03
2024-01-01T09:29:50.255Z,90.92
2024-01-01T09:30:50.316Z,91.03
2024-01-01T09:31:50.229Z,91.03
2024-01-01T09:32:50.230Z,91.03
2024-01-01T09:33:50.345Z,90.92
2024-01-01T09:34:50.217Z,90.92
2024-01-01T09:35:50.171Z,90.92
2024-01-01T09:36:57.652Z,90.99
2024-01-01T09:37:51.151Z,90.78
2024-01-01T09:38:50.138Z,90.67
2024-01-01T09:39:50.120Z,90.67
2024-01-01T09:40:50.141Z,90.78
2024-01-01T09:41:50.085Z,90.78
2024-01-01T09:42:50.081Z,90.78
2024-01-01T09:43:50.090Z,90.57
2024-01-01T09:44:50.043Z,90.37
2024-01-01T09:45:50.036Z,90.26
2024-01-01T09:46:50.100Z,90.37
2024-01-01T09:47:50.077Z,90.43
2024-01-01T09:48:50.061Z,90.43
2024-01-01T09:49:50.005Z,90.12
2024-01-01T09:50:49.953Z,90.12
2024-01-01T09:51:49.963Z,89.91
2024-01-01T09:52:49.990Z,90.01
2024-01-01T09:53:49.920Z,90.01
2024-01-01T09:54:49.913Z,89.91
2024-01-01T09:55:49.940Z,89.91
2024-01-01T09:56:49.886Z,89.87
2024-01-01T09:57:49.904Z,89.77
2024-01-01T09:58:49.860Z,89.77
2024-01-01T09:59:49.842Z,89.87
2024-01-01T10:00:49.867Z,89.87
2024-01-01T10:01:49.879Z,89.77
2024-01-01T10:02:49.819Z,89.77
2024-01-01T10:03:49.803Z,89.87
2024-01-01T10:04:49.790Z,89.87
2024-01-01T10:05:50.618Z,89.56
2024-01-01T10:06:49.769Z,89.56
2024-01-01T10:07:49.774Z,89.46
2024-01-01T10:08:49.720Z,89.56
2024-01-01T10:09:49.836Z,89.56
2024-01-01T10:10:49.730Z,89.62
2024-01-01T10:11:49.700Z,89.73
2024-01-01T10:12:49.674Z,89.62
2024-01-01T10:13:49.680Z,89.62
2024-01-01T10:14:49.650Z,89.62
2024-01-01T10:15:49.642Z,89.62
2024-01-01T10:16:49.684Z,89.62
2024-01-01T10:17:49.754Z,89.52
2024-01-01T10:18:49.639Z,89.52
2024-01-01T10:19:49.702Z,89.62
2024-01-01T10:20:49.568Z,89.73
2024-01-01T10:21:49.554Z,89.62
2024-01-01T10:22:49.548Z,89.42
2024-01-01T10:23:52.425Z,89.42
2024-01-01T10:24:50.582Z,89.42
2024-01-01T10:25:49.542Z,89.38
2024-01-01T10:26:49.485Z,89.22
2024-01-01T10:27:49.476Z,89.28
2024-01-01T10:28:49.473Z,89.38
2024-01-01T10:29:49.525Z,89.38
2024-01-01T10:30:49.508Z,89.38
2024-01-01T10:31:50.120Z,89.48
2024-01-01T10:32:49.494Z,89.58
2024-01-01T10:33:49.485Z,89.58
2024-01-01T10:34:49.434Z,89.38
2024-01-01T10:35:49.385Z,89.07
2024-01-01T10:36:49.428Z,88.45
2024-01-01T10:37:49.385Z,88.35
2024-01-01T10:38:49.370Z,88.56
2024-01-01T10:39:49.368Z,88.76
2024-01-01T10:40:49.370Z,88.86
2024-01-01T10:41:49.305Z,88.92
2024-01-01T10:42:49.294Z,88.62
2024-01-01T10:43:49.331Z,88.62
2024-01-01T10:44:49.294Z,88.82
2024-01-01T10:45:49.255Z,88.92
2024-01-01T10:46:49.257Z,88.82
2024-01-01T10:47:49.354Z,88.82
2024-01-01T10:48:49.387Z,88.82
2024-01-01T10:49:49.211Z,88.82
2024-01-01T10:50:49.187Z,88.82
2024-01-01T10:51:49.176Z,88.92
2024-01-01T10:52:49.212Z,88.92
2024-01-01T10:53:49.155Z,88.92
2024-01-01T10:54:49.143Z,89.03
2024-01-01T10:55:49.273Z,89.13
2024-01-01T10:56:49.121Z,89.13
2024-01-01T10:57:49.147Z,89.03
2024-01-01T10:58:49.114Z,88.82
2024-01-01T10:59:49.063Z,88.82
2024-01-01T11:00:49.149Z,88.62
2024-01-01T11:01:49.076Z,88.31
2024-01-01T11:02:49.100Z,88.41
2024-01-01T11:03:49.043Z,88.41
2024-01-01T11:04:49.144Z,88.51
2024-01-01T11:05:49.054Z,88.20
2024-01-01T11:06:48.982Z,88.10
2024-01-01T11:07:48.977Z,88.10
2024-01-01T11:08:48.942Z,88.00
2024-01-01T11:09:48.921Z,87.90
2024-01-01T11:10:48.939Z,88.00
2024-01-01T11:11:48.919Z,88.00
2024-01-01T11:12:48.892Z,88.10
2024-01-01T11:13:49.014Z,88.20
2024-01-01T11:14:48.911Z,88.20
2024-01-01T11:15:48.863Z,88.31
2024-01-01T11:17:00.533Z,88.41
2024-01-01T11:17:49.901Z,88.51
2024-01-01T11:18:50.430Z,88.62
2024-01-01T11:19:48.987Z,88.51
2024-01-01T11:20:48.870Z,88.62
2024-01-01T11:21:48.782Z,88.72
2024-01-01T11:22:50.037Z,88.82
2024-01-01T11:23:48.744Z,88.92
2024-01-01T11:24:50.176Z,88.62
2024-01-01T11:25:48.747Z,88.72
2024-01-01T11:26:48.717Z,88.72
2024-01-01T11:27:49.212Z,88.82
2024-01-01T11:28:48.701Z,88.72
2024-01-01T11:29:48.680Z,88.72
2024-01-01T11:30:48.703Z,88.62
2024-01-01T11:31:48.684Z,88.62
2024-01-01T11:32:48.646Z,88.62
2024-01-01T11:33:48.684Z,88.68
2024-01-01T11:34:54.156Z,88.68
2024-01-01T11:35:49.651Z,88.78
2024-01-01T11:36:48.659Z,88.89
2024-01-01T11:37:48.586Z,88.78
2024-01-01T11:38:48.648Z,88.82
2024-01-01T11:39:48.536Z,88.89
2024-01-01T11:40:48.539Z,88.98
2024-01-01T11:41:48.513Z,88.89
2024-01-01T11:42:48.498Z,88.82
2024-01-01T11:43:48.528Z,88.82
2024-01-01T11:44:48.507Z,88.92
2024-01-01T11:45:56.345Z,88.92
2024-01-01T11:46:49.563Z,88.92
2024-01-01T11:47:48.572Z,89.03
2024-01-01T11:48:48.470Z,89.03
2024-01-01T11:49:48.473Z,88.92
2024-01-01T11:50:48.430Z,88.82
2024-01-01T11:51:48.396Z,88.82
2024-01-01T11:52:48.372Z,88.82
2024-01-01T11:53:48.374Z,88.62
2024-01-01T11:54:48.411Z,88.72
2024-01-01T11:55:48.374Z,88.92
2024-01-01T11:56:48.385Z,88.89
2024-01-01T11:57:48.290Z,88.98
2024-01-01T11:58:48.346Z,89.03
2024-01-01T11:59:48.260Z,88.57
2024-01-01T12:00:48.299Z,88.57
2024-01-01T12:01:48.305Z,88.68
2024-01-01T12:02:48.244Z,88.89
2024-01-01T12:03:50.603Z,88.89
2024-01-01T12:04:48.325Z,88.98
2024-01-01T12:05:48.292Z,88.89
2024-01-01T12:06:48.286Z,88.89
2024-01-01T12:07:48.190Z,88.98
2024-01-01T12:08:48.170Z,88.68
2024-01-01T12:09:48.137Z,88.68
2024-01-01T12:10:48.163Z,88.89
2024-01-01T12:11:48.137Z,88.89
2024-01-01T12:12:48.114Z,88.89
2024-01-01T12:13:48.113Z,88.89
2024-01-01T12:14:48.075Z,88.98
2024-01-01T12:15:48.060Z,88.98
2024-01-01T12:16:48.080Z,88.68
2024-01-01T12:17:48.131Z,88.68
2024-01-01T12:18:48.019Z,88.78
2024-01-01T12:19:48.028Z,88.57
2024-01-01T12:20:48.038Z,88.57
2024-01-01T12:21:48.006Z,88.72
2024-01-01T12:22:47.999Z,88.78
2024-01-01T12:23:47.954Z,88.72
2024-01-01T12:24:47.953Z,88.62
2024-01-01T12:25:47.959Z,88.62
2024-01-01T12:26:47.965Z,88.62
2024-01-01T12:27:47.911Z,88.72
2024-01-01T12:28:47.982Z,88.41
2024-01-01T12:29:48.037Z,88.51
2024-01-01T12:30:47.984Z,88.62
2024-01-01T12:31:48.016Z,88.62
2024-01-01T12:32:47.875Z,88.51
2024-01-01T12:33:47.883Z,88.51
2024-01-01T12:34:47.861Z,88.51
2024-01-01T12:35:47.815Z,88.62
2024-01-01T12:36:47.796Z,88.47
2024-01-01T12:37:47.821Z,88.57
2024-01-01T12:38:47.824Z,88.47
2024-01-01T12:39:47.775Z,88.47
2024-01-01T12:40:47.807Z,88.47
2024-01-01T12:41:47.803Z,88.47
2024-01-01T12:42:47.701Z,88.47
2024-01-01T12:43:47.725Z,88.47
2024-01-01T12:44:47.737Z,88.57
2024-01-01T12:45:47.678Z,88.47
2024-01-01T12:46:47.751Z,88.17
2024-01-01T12:47:47.689Z,88.06
2024-01-01T12:48:47.666Z,88.17
2024-01-01T12:49:47.686Z,88.06
2024-01-01T12:50:47.608Z,88.17
2024-01-01T12:51:47.648Z,87.96
2024-01-01T12:52:47.638Z,88.06